x

Nanakwa Shoal (46181) Wave Buoy

1:00am - Fri 12th Feb 2016 All times are PST. -8 hours from GMT.

  • Sig Wave height 0.3ft
  • Peak Period 2s
  • Wind
    16mph, 18mph gusts
  • Sea Temp 41°f
  • Air Temp 42°f
  • Sea Pressure 1009.8mb
  • Nanakwa Shoal
  • Nanakwa Shoal

More Historic Weather Station data

Upgrade to MSW Pro to gain access to the past 30 days of data for over 8000 Wavebouys and Weather Stations around the globe.

Join Pro

Comparision Forecast

View Surf forecast
   
Fri 02/12 1:00am 0.3ft 2s 16 18 mph 1009.8mb 41f 42f
Thu 02/11 11:00pm 0.3ft 2s 4 9 mph 1011mb 41f 42f
10:00pm 0.3ft 2s 9 13 mph 1011.7mb 41f 42f
9:00pm 0.3ft 2s 9 16 mph 1012.8mb 41f 42f
8:00pm 0.3ft 2s 2 7 mph 1013.1mb 41f 43f
7:00pm 0.3ft 2s 4 9 mph 1013mb 41f 43f
6:00pm 0.3ft 2s 9 13 mph 1012.8mb 41f 44f
5:00pm 0.3ft 2s 11 13 mph 1013mb 41f 44f
4:00pm 0.7ft 2s 4 11 mph 1013.8mb 41f 43f
3:00pm 0.7ft 2s 9 16 mph 1014.8mb 41f 43f
2:00pm 0.3ft 2s 11 16 mph 1015.7mb 41f 44f
1:00pm 0.3ft 2s 9 13 mph 1017.4mb 41f 43f
12:00pm 0.7ft 2s 20 25 mph 1017.9mb 41f 42f
11:00am 0.7ft 2s 18 22 mph 1019.3mb 41f 41f
10:00am 0.7ft 2s 11 18 mph 1020.5mb 41f 40f
9:00am 0.7ft 2s 9 11 mph 1021.4mb 41f 41f
8:00am 0.3ft 2s 13 16 mph 1021.5mb 41f 40f
7:00am 0.3ft 2s 9 11 mph 1021.9mb 41f 40f
6:00am 0.3ft 2s 11 13 mph 1022.3mb 41f 40f
5:00am  -  5s 13 16 mph 1022mb 40f 40f
4:00am  -  5s 2 4 mph 1022.9mb 40f 41f
3:00am  -  5s  -  2 mph 1023.3mb 41f 41f
2:00am  -  5s 4 7 mph 1023mb 41f 41f
1:00am  -  5s  -  2 mph 1022.7mb 41f 41f
12:00am  -  5s 2 4 mph 1022.6mb 41f 42f
Wed 02/10 11:00pm 0.3ft 5s 2 4 mph 1022mb 40f 42f
10:00pm  -  5s 9
mph
1021.1mb 40f 41f
9:00pm 0.3ft 2s 4
mph
1020mb 40f 42f
8:00pm  -  5s 4 7 mph 1019.1mb 40f 41f
7:00pm 0.3ft 2s  -  2 mph 1018.2mb 40f 42f
6:00pm 0.3ft 5s  -  2 mph 1017.2mb 40f 43f
5:00pm  -  5s 2 4 mph 1015.8mb 41f 42f
4:00pm  -  5s  -  2 mph 1013.9mb 41f 42f
3:00pm  -  5s  -  2 mph 1012.3mb 41f 41f
2:00pm 0.3ft 5s 7
mph
1011.6mb 41f 41f
1:00pm 0.3ft 2s 9
mph
1011.3mb 41f 42f
12:00pm 0.3ft 2s 7 9 mph 1012.1mb 41f 41f
11:00am 0.3ft 2s 11 13 mph 1012.3mb 41f 41f
10:00am 0.3ft 2s 11 13 mph 1013.1mb 40f 40f
9:00am 0.3ft 2s 4 9 mph 1013.4mb 41f 41f
8:00am 0.3ft 2s 2 4 mph 1013.5mb 41f 40f
7:00am 0.3ft 2s 11 13 mph 1013.4mb 40f 40f
6:00am  -  5s 11 13 mph 1013.6mb 40f 40f
5:00am  -  5s 4
mph
1014.2mb 40f 40f
4:00am  -  5s  -  2 mph 1014.4mb 40f 41f
3:00am  -  5s 2 4 mph 1014.6mb 40f 41f
2:00am 0.3ft 5s 2 4 mph 1014.6mb 40f 41f
1:00am  -  5s 7 9 mph 1014.4mb 40f 42f
12:00am  -  5s 4
mph
1014.2mb 40f 42f
Tue 02/09 11:00pm  -  5s 4 7 mph 1014.3mb 40f 41f
10:00pm  -  5s 2 4 mph 1014.6mb 40f 42f
9:00pm  -  5s 4 7 mph 1013.8mb 40f 41f
8:00pm  -  5s 7 9 mph 1013mb 40f 40f
7:00pm 0.3ft 2s 4 9 mph 1013mb 40f 41f
6:00pm 0.3ft 5s 4 11 mph 1013.2mb 40f 43f
5:00pm 0.3ft 5s 7 11 mph 1013.7mb 40f 43f
4:00pm 0.3ft 2s 4 9 mph 1014.4mb 40f 43f
3:00pm 0.3ft 2s 2 4 mph 1014.7mb 40f 42f
2:00pm 0.3ft 2s 11 13 mph 1015.1mb 41f 42f
1:00pm 0.3ft 2s 9 13 mph 1016.1mb 41f 42f
12:00pm 0.7ft 2s 13 16 mph 1016.8mb 41f 42f
11:00am 0.7ft 2s 16 18 mph 1018.2mb 41f 42f
10:00am 0.7ft 2s 13 18 mph 1019mb 41f 41f
6:00am 0.3ft 5s 9 11 mph 1021.7mb 40f 41f
5:00am  -  5s 9 11 mph 1022.2mb 41f 41f
4:00am  -  5s 7 9 mph 1022.8mb 41f 41f
3:00am  -  5s  -  mph 1023.7mb 41f 41f
2:00am  -  5s  -  2 mph 1024.7mb 41f 42f
1:00am  -  5s 2 4 mph 1025.1mb 41f 42f
12:00am  -  5s 2 4 mph 1025.8mb 40f 42f
Mon 02/08 11:00pm  -  5s  -  2 mph 1026mb 40f 41f
10:00pm  -  5s 7 9 mph 1026.4mb 40f 41f
9:00pm  -  5s 2 4 mph 1026.8mb 40f 42f
8:00pm  -  5s 4 7 mph 1026.8mb 40f 42f
7:00pm  -  5s 4 7 mph 1027mb 41f 42f
6:00pm  -  5s 7
mph
1027.1mb 41f 43f
5:00pm 0.3ft 5s  -  2 mph 1027.4mb 42f 42f
4:00pm  -  5s 7
mph
1027mb 41f 43f
3:00pm 0.3ft 5s 4
mph
1026.9mb 41f 43f
2:00pm 0.3ft 3s  -  2 mph 1026.4mb 40f 42f
1:00pm 0.3ft 3s 4
mph
1026mb 40f 43f
12:00pm 0.3ft 5s  -  2 mph 1026.5mb 40f 41f
11:00am  -  6s  -  2 mph 1026.5mb 40f 39f